createdAt,value
2018-07-27T00:02:26.001Z,100338.16
2018-07-27T00:05:23.461Z,100336.11
2018-07-27T00:08:20.804Z,100337.00
2018-07-27T00:11:18.484Z,100333.20
2018-07-27T00:14:15.915Z,100336.88
2018-07-27T00:17:13.416Z,100339.56
2018-07-27T00:20:10.816Z,100340.09
2018-07-27T00:23:08.637Z,100343.11
2018-07-27T00:26:05.704Z,100342.77
2018-07-27T00:29:03.136Z,100344.75
2018-07-27T00:32:00.416Z,100341.95
2018-07-27T00:34:57.720Z,100344.00
2018-07-27T00:37:55.130Z,100341.75
2018-07-27T00:40:53.100Z,100340.91
2018-07-27T00:43:51.071Z,100336.88
2018-07-27T00:46:48.940Z,100336.67
2018-07-27T00:49:45.991Z,100338.46
2018-07-27T00:52:43.256Z,100339.31
2018-07-27T00:55:40.362Z,100335.20
2018-07-27T00:58:38.491Z,100335.95
2018-07-27T01:01:35.635Z,100328.67
2018-07-27T01:04:33.732Z,100332.69
2018-07-27T01:07:31.307Z,100326.56
2018-07-27T01:10:28.744Z,100330.48
2018-07-27T01:13:26.736Z,100329.73
2018-07-27T01:16:23.814Z,100325.06
2018-07-27T01:19:21.397Z,100323.99
2018-07-27T01:22:18.672Z,100326.94
2018-07-27T01:25:15.725Z,100319.07
2018-07-27T01:28:12.854Z,100314.63
2018-07-27T01:31:10.786Z,100312.05
2018-07-27T01:34:07.939Z,100314.20
2018-07-27T01:37:05.320Z,100302.20
2018-07-27T01:40:02.904Z,100304.45
2018-07-27T01:43:00.625Z,100307.34
2018-07-27T01:45:57.886Z,100303.88
2018-07-27T01:48:55.252Z,100301.98
2018-07-27T01:51:52.899Z,100304.18
2018-07-27T01:54:50.999Z,100303.63
2018-07-27T01:57:48.456Z,100301.23
2018-07-27T02:00:45.818Z,100297.39
2018-07-27T02:03:43.534Z,100307.69
2018-07-27T02:06:41.428Z,100301.91
2018-07-27T02:09:39.466Z,100303.75
2018-07-27T02:12:36.899Z,100298.35
2018-07-27T02:15:34.955Z,100297.02
2018-07-27T02:18:32.432Z,100299.36
2018-07-27T02:21:30.132Z,100292.81
2018-07-27T02:24:27.330Z,100291.79
2018-07-27T02:27:24.318Z,100289.77
2018-07-27T02:30:21.391Z,100291.09
2018-07-27T02:33:18.886Z,100284.53
2018-07-27T02:36:16.839Z,100283.65
2018-07-27T02:39:14.044Z,100276.80
2018-07-27T02:42:11.529Z,100282.19
2018-07-27T02:45:08.859Z,100277.20
2018-07-27T02:48:06.652Z,100278.36
2018-07-27T02:51:03.788Z,100273.08
2018-07-27T02:54:01.075Z,100272.13
2018-07-27T02:56:58.303Z,100267.23
2018-07-27T02:59:55.200Z,100275.16
2018-07-27T03:02:53.234Z,100267.97
2018-07-27T03:05:51.100Z,100269.12
2018-07-27T03:08:48.052Z,100265.56
2018-07-27T03:11:45.106Z,100266.77
2018-07-27T03:14:42.467Z,100270.39
2018-07-27T03:17:39.618Z,100264.56
2018-07-27T03:20:37.488Z,100264.02
2018-07-27T03:23:35.256Z,100272.55
2018-07-27T03:26:33.244Z,100265.02
2018-07-27T03:29:31.440Z,100266.45
2018-07-27T03:32:29.371Z,100269.33
2018-07-27T03:35:26.772Z,100269.50
2018-07-27T03:38:23.976Z,100271.63
2018-07-27T03:41:22.990Z,100277.29
2018-07-27T03:44:21.181Z,100277.08
2018-07-27T03:47:18.443Z,100285.50
2018-07-27T03:50:15.615Z,100282.86
2018-07-27T03:53:12.943Z,100283.94
2018-07-27T03:56:10.226Z,100281.13
2018-07-27T03:59:07.353Z,100286.52
2018-07-27T04:02:04.641Z,100290.41
2018-07-27T04:05:01.900Z,100284.73
2018-07-27T04:07:59.276Z,100290.19
2018-07-27T04:10:56.632Z,100284.66
2018-07-27T04:13:54.548Z,100284.32
2018-07-27T04:16:52.656Z,100289.05
2018-07-27T04:19:49.703Z,100292.72
2018-07-27T04:22:46.681Z,100286.17
2018-07-27T04:25:43.911Z,100286.75
2018-07-27T04:28:41.679Z,100281.64
2018-07-27T04:31:39.482Z,100278.86
2018-07-27T04:34:36.624Z,100276.86
2018-07-27T04:37:33.744Z,100281.27
2018-07-27T04:40:30.903Z,100282.94
2018-07-27T04:43:28.720Z,100280.72
2018-07-27T04:46:25.895Z,100282.89
2018-07-27T04:49:23.190Z,100273.41
2018-07-27T04:52:20.366Z,100280.30
2018-07-27T04:55:18.015Z,100268.42
2018-07-27T04:58:16.224Z,100273.30
2018-07-27T05:01:13.552Z,100261.11
2018-07-27T05:04:10.724Z,100260.80
2018-07-27T05:07:08.384Z,100265.31
2018-07-27T05:10:05.763Z,100274.19
2018-07-27T05:13:03.913Z,100272.00
2018-07-27T05:16:01.507Z,100272.20
2018-07-27T05:18:59.067Z,100267.78
2018-07-27T05:21:56.719Z,100272.72
2018-07-27T05:24:54.894Z,100275.14
2018-07-27T05:27:51.932Z,100268.35
2018-07-27T05:30:49.307Z,100267.06
2018-07-27T05:33:46.630Z,100259.94
2018-07-27T05:36:43.902Z,100258.07
2018-07-27T05:39:41.720Z,100264.06
2018-07-27T05:42:39.679Z,100268.17
2018-07-27T05:45:37.333Z,100275.49
2018-07-27T05:48:34.697Z,100269.91
2018-07-27T05:51:32.287Z,100264.12
2018-07-27T05:54:30.230Z,100270.55
2018-07-27T05:57:27.543Z,100269.53
2018-07-27T06:00:24.524Z,100270.36
2018-07-27T06:03:21.689Z,100275.22
2018-07-27T06:06:19.064Z,100264.33
2018-07-27T06:09:17.243Z,100273.21
2018-07-27T06:12:14.763Z,100269.66
2018-07-27T06:15:12.907Z,100267.37
2018-07-27T06:18:10.075Z,100270.87
2018-07-27T06:21:07.777Z,100266.67
2018-07-27T06:24:05.022Z,100273.97
2018-07-27T06:27:02.980Z,100272.34
2018-07-27T06:30:00.097Z,100282.11
2018-07-27T06:32:57.961Z,100274.88
2018-07-27T06:35:56.045Z,100272.70
2018-07-27T06:38:53.320Z,100273.20
2018-07-27T06:41:50.387Z,100267.05
2018-07-27T06:44:48.458Z,100261.91
2018-07-27T06:47:45.594Z,100267.00
2018-07-27T06:50:43.258Z,100272.34
2018-07-27T06:53:40.622Z,100271.73
2018-07-27T06:56:38.351Z,100265.20
2018-07-27T06:59:35.980Z,100275.19
2018-07-27T07:02:33.883Z,100280.97
2018-07-27T07:05:31.324Z,100275.11
2018-07-27T07:08:28.858Z,100273.06
2018-07-27T07:11:26.226Z,100280.36
2018-07-27T07:14:23.364Z,100271.25
2018-07-27T07:17:20.737Z,100269.53
2018-07-27T07:20:17.923Z,100269.70
2018-07-27T07:23:15.668Z,100277.84
2018-07-27T07:26:13.262Z,100276.09
2018-07-27T07:29:10.890Z,100273.70
2018-07-27T07:32:08.016Z,100266.82
2018-07-27T07:35:05.213Z,100265.16
2018-07-27T07:38:02.235Z,100258.05
2018-07-27T07:40:59.439Z,100254.01
2018-07-27T07:43:57.017Z,100255.83
2018-07-27T07:46:54.008Z,100253.47
2018-07-27T07:49:51.496Z,100247.05
2018-07-27T07:52:48.749Z,100249.94
2018-07-27T07:55:45.799Z,100245.95
2018-07-27T07:58:43.184Z,100247.56
2018-07-27T08:01:40.715Z,100245.92
2018-07-27T08:04:38.554Z,100244.33
2018-07-27T08:07:35.605Z,100238.05
2018-07-27T08:10:33.704Z,100234.11
2018-07-27T08:13:31.896Z,100228.81
2018-07-27T08:16:29.911Z,100238.69
2018-07-27T08:19:27.148Z,100233.47
2018-07-27T08:22:24.340Z,100229.58
2018-07-27T08:25:22.396Z,100220.34
2018-07-27T08:28:31.588Z,100218.05
2018-07-27T08:31:28.914Z,100220.23
2018-07-27T08:34:26.435Z,100227.60
2018-07-27T08:37:23.468Z,100219.18
2018-07-27T08:40:20.860Z,100210.03
2018-07-27T08:43:18.907Z,100212.48
2018-07-27T08:46:16.293Z,100212.77
2018-07-27T08:49:13.616Z,100207.54
2018-07-27T08:52:10.988Z,100204.50
2018-07-27T08:55:15.355Z,100195.80
2018-07-27T08:58:12.492Z,100197.30
2018-07-27T09:01:14.940Z,100202.83
2018-07-27T09:04:12.141Z,100192.78
2018-07-27T09:07:10.298Z,100198.11
2018-07-27T09:10:07.591Z,100196.75
2018-07-27T09:13:04.871Z,100192.73
2018-07-27T09:16:02.933Z,100189.23
2018-07-27T09:19:01.012Z,100189.56
2018-07-27T09:21:58.312Z,100176.37
2018-07-27T09:24:56.268Z,100181.80
2018-07-27T09:27:53.972Z,100178.55
2018-07-27T09:30:51.194Z,100182.09
2018-07-27T09:33:48.485Z,100176.26
2018-07-27T09:36:45.847Z,100175.59
2018-07-27T09:39:43.105Z,100166.23
2018-07-27T09:42:40.372Z,100159.66
2018-07-27T09:45:37.792Z,100158.58
2018-07-27T09:48:35.347Z,100168.61
2018-07-27T09:51:32.459Z,100162.55
2018-07-27T09:54:30.117Z,100164.39
2018-07-27T09:57:27.275Z,100151.66
2018-07-27T10:01:28.323Z,100153.63
2018-07-27T10:04:25.870Z,100123.38
2018-07-27T10:07:23.818Z,100139.81
2018-07-27T10:10:21.849Z,100135.61
2018-07-27T10:13:19.947Z,100120.53
2018-07-27T10:16:17.410Z,100118.77
2018-07-27T10:19:15.628Z,100114.59
2018-07-27T10:22:12.976Z,100121.87
2018-07-27T10:25:10.588Z,100122.52
2018-07-27T10:28:08.097Z,100123.97
2018-07-27T10:31:05.971Z,100124.50
2018-07-27T10:34:04.077Z,100117.07
2018-07-27T10:37:01.218Z,100107.40
2018-07-27T10:39:59.228Z,100100.70
2018-07-27T10:42:56.383Z,100109.92
2018-07-27T10:45:53.523Z,100101.69
2018-07-27T10:48:50.582Z,100100.32
2018-07-27T10:51:48.256Z,100098.80
2018-07-27T10:54:45.367Z,100088.61
2018-07-27T10:57:42.436Z,100090.66
2018-07-27T11:00:40.521Z,100085.41
2018-07-27T11:03:38.380Z,100094.16
2018-07-27T11:06:36.133Z,100100.09
2018-07-27T11:09:33.453Z,100069.00
2018-07-27T11:12:30.780Z,100080.14
2018-07-27T11:15:27.871Z,100084.11
2018-07-27T11:18:24.896Z,100072.31
2018-07-27T11:21:21.868Z,100068.84
2018-07-27T11:24:19.876Z,100064.77
2018-07-27T11:27:17.987Z,100076.39
2018-07-27T11:30:15.940Z,100059.62
2018-07-27T11:33:13.943Z,100054.57
2018-07-27T11:36:11.275Z,100055.73
2018-07-27T11:39:08.748Z,100060.71
2018-07-27T11:42:06.372Z,100074.73
2018-07-27T11:45:03.968Z,100062.94
2018-07-27T11:48:01.670Z,100062.98
2018-07-27T11:50:59.792Z,100059.00
2018-07-27T11:53:57.760Z,100054.71
2018-07-27T11:56:55.499Z,100040.86
2018-07-27T11:59:52.864Z,100053.66
2018-07-27T12:02:50.705Z,100031.60
2018-07-27T12:05:47.847Z,100023.74
2018-07-27T12:08:45.216Z,100025.13
2018-07-27T12:11:42.727Z,100034.64
2018-07-27T12:14:40.277Z,100031.98
2018-07-27T12:17:37.231Z,100017.89
2018-07-27T12:20:34.609Z,100010.41
2018-07-27T12:23:32.216Z,100017.41
2018-07-27T12:26:29.788Z,100018.59
2018-07-27T12:29:27.528Z,100013.04
2018-07-27T12:32:24.955Z,100006.67
2018-07-27T12:35:23.011Z,100004.77
2018-07-27T12:38:21.076Z,100005.23
2018-07-27T12:41:19.144Z,99997.33
2018-07-27T12:44:16.824Z,99982.42
2018-07-27T12:47:13.955Z,99989.11
2018-07-27T12:50:11.460Z,100002.00
2018-07-27T12:53:09.405Z,99987.22
2018-07-27T12:56:07.768Z,99989.35
2018-07-27T12:59:05.678Z,99979.38
2018-07-27T13:02:03.523Z,99980.71
2018-07-27T13:05:01.168Z,99964.32
2018-07-27T13:07:59.008Z,99969.66
2018-07-27T13:10:57.037Z,99963.60
2018-07-27T13:13:54.398Z,99969.91
2018-07-27T13:16:51.780Z,99963.67
2018-07-27T13:19:49.578Z,99953.58
2018-07-27T13:22:46.896Z,99960.73
2018-07-27T13:25:44.464Z,99957.99
2018-07-27T13:28:41.655Z,99948.92
2018-07-27T13:32:12.340Z,99949.86
2018-07-27T13:35:09.928Z,99944.34
2018-07-27T13:38:07.853Z,99925.79
2018-07-27T13:41:05.281Z,99919.69
2018-07-27T13:44:03.299Z,99925.94
2018-07-27T13:47:00.394Z,99914.99
2018-07-27T13:49:58.423Z,99900.97
2018-07-27T13:52:55.455Z,99901.78
2018-07-27T13:56:01.785Z,99901.20
2018-07-27T13:58:59.072Z,99886.91
2018-07-27T14:01:57.269Z,99892.78
2018-07-27T14:04:55.099Z,99884.06
2018-07-27T14:07:52.131Z,99893.62
2018-07-27T14:10:49.716Z,99893.84
2018-07-27T14:13:47.764Z,99884.99
2018-07-27T14:16:45.387Z,99868.25
2018-07-27T14:19:42.954Z,99879.63
2018-07-27T14:22:40.520Z,99875.69
2018-07-27T14:25:38.155Z,99868.78
2018-07-27T14:28:35.620Z,99871.07
2018-07-27T14:31:32.833Z,99875.72
2018-07-27T14:34:30.837Z,99867.29
2018-07-27T14:37:28.047Z,99860.89
2018-07-27T14:40:25.371Z,99850.61
2018-07-27T14:43:23.472Z,99858.59
2018-07-27T14:46:21.639Z,99857.48
2018-07-27T14:49:19.874Z,99847.09
2018-07-27T14:52:17.514Z,99847.25
2018-07-27T14:55:14.924Z,99849.33
2018-07-27T14:58:13.530Z,99854.14
2018-07-27T15:01:11.208Z,99839.59
2018-07-27T15:04:08.321Z,99836.14
2018-07-27T15:07:05.427Z,99831.84
2018-07-27T15:10:03.399Z,99824.67
2018-07-27T15:13:01.547Z,99806.33
2018-07-27T15:15:58.957Z,99815.43
2018-07-27T15:18:56.590Z,99819.11
2018-07-27T15:21:54.520Z,99826.48
2018-07-27T15:24:52.408Z,99817.11
2018-07-27T15:27:49.960Z,99809.42
2018-07-27T15:30:47.167Z,99808.00
2018-07-27T15:33:44.295Z,99802.48
2018-07-27T15:36:42.048Z,99804.34
2018-07-27T15:39:39.464Z,99804.09
2018-07-27T15:42:37.319Z,99794.14
2018-07-27T15:45:34.556Z,99788.75
2018-07-27T15:48:31.833Z,99808.41
2018-07-27T15:51:29.432Z,99787.35
2018-07-27T15:54:27.499Z,99790.20
2018-07-27T15:57:24.793Z,99794.36
2018-07-27T16:00:22.374Z,99775.36
2018-07-27T16:03:20.243Z,99777.28
2018-07-27T16:06:17.591Z,99775.20
2018-07-27T16:09:16.030Z,99774.41
2018-07-27T16:12:13.439Z,99776.94
2018-07-27T16:15:10.384Z,99771.06
2018-07-27T16:18:08.356Z,99761.89
2018-07-27T16:21:05.514Z,99767.58
2018-07-27T16:24:03.516Z,99769.41
2018-07-27T16:27:01.315Z,99764.39
2018-07-27T16:29:59.031Z,99755.69
2018-07-27T16:32:57.095Z,99755.55
2018-07-27T16:35:55.209Z,99757.26
2018-07-27T16:38:52.782Z,99750.02
2018-07-27T16:41:50.409Z,99752.11
2018-07-27T16:44:47.473Z,99749.91
2018-07-27T16:47:44.932Z,99746.02
2018-07-27T16:50:42.359Z,99757.91
2018-07-27T16:53:39.678Z,99759.19
2018-07-27T16:56:37.208Z,99766.03
2018-07-27T16:59:34.416Z,99759.48
2018-07-27T17:02:32.142Z,99764.36
2018-07-27T17:05:29.314Z,99767.72
2018-07-27T17:08:27.075Z,99778.09
2018-07-27T17:11:24.685Z,99776.78
2018-07-27T17:14:22.358Z,99767.59
2018-07-27T17:17:19.690Z,99761.41
2018-07-27T17:20:17.563Z,99781.63
2018-07-27T17:23:15.292Z,99763.73
2018-07-27T17:26:12.597Z,99769.73
2018-07-27T17:29:10.655Z,99770.58
2018-07-27T17:32:08.626Z,99771.75
2018-07-27T17:35:06.531Z,99767.19
2018-07-27T17:38:03.996Z,99770.27
2018-07-27T17:41:01.724Z,99776.03
2018-07-27T17:43:58.995Z,99775.52
2018-07-27T17:46:56.960Z,99765.17
2018-07-27T17:49:53.932Z,99770.09
2018-07-27T17:52:51.153Z,99772.85
2018-07-27T17:55:49.083Z,99773.16
2018-07-27T17:58:46.905Z,99772.63
2018-07-27T18:01:44.155Z,99773.75
2018-07-27T18:04:41.597Z,99778.94
2018-07-27T18:07:39.377Z,99782.53
2018-07-27T18:10:36.972Z,99777.67
2018-07-27T18:13:34.755Z,99768.45
2018-07-27T18:16:31.800Z,99767.67
2018-07-27T18:19:29.572Z,99763.60
2018-07-27T18:22:27.290Z,99771.50
2018-07-27T18:25:25.631Z,99765.27
2018-07-27T18:28:23.628Z,99768.58
2018-07-27T18:31:21.887Z,99769.94
2018-07-27T18:34:20.016Z,99765.08
2018-07-27T18:37:18.239Z,99768.35
2018-07-27T18:40:16.596Z,99765.94
2018-07-27T18:43:14.314Z,99769.48
2018-07-27T18:46:11.969Z,99771.92
2018-07-27T18:49:09.392Z,99762.67
2018-07-27T18:52:07.416Z,99770.02
2018-07-27T18:55:05.492Z,99771.94
2018-07-27T18:58:02.858Z,99766.54
2018-07-27T19:01:00.588Z,99772.52
2018-07-27T19:03:57.673Z,99771.97
2018-07-27T19:06:54.766Z,99764.87
2018-07-27T19:09:52.246Z,99763.52
2018-07-27T19:12:49.686Z,99756.71
2018-07-27T19:15:47.571Z,99752.91
2018-07-27T19:18:44.690Z,99753.18
2018-07-27T19:21:42.200Z,99754.50
2018-07-27T19:24:39.888Z,99759.60
2018-07-27T19:27:37.359Z,99757.94
2018-07-27T19:30:35.104Z,99760.59
2018-07-27T19:33:32.381Z,99760.02
2018-07-27T19:36:29.700Z,99767.02
2018-07-27T19:39:29.148Z,99768.89
2018-07-27T19:42:26.283Z,99768.62
2018-07-27T19:45:24.374Z,99754.82
2018-07-27T19:48:21.714Z,99766.92
2018-07-27T19:51:19.587Z,99772.83
2018-07-27T19:54:17.523Z,99763.59
2018-07-27T19:57:14.924Z,99769.27
2018-07-27T20:00:12.348Z,99774.11
2018-07-27T20:03:10.447Z,99771.39
2018-07-27T20:06:08.059Z,99769.96
2018-07-27T20:09:05.276Z,99766.13
2018-07-27T20:12:03.176Z,99762.56
2018-07-27T20:15:01.041Z,99761.88
2018-07-27T20:17:59.084Z,99760.61
2018-07-27T20:20:56.264Z,99762.34
2018-07-27T20:23:53.540Z,99759.08
2018-07-27T20:26:51.276Z,99770.66
2018-07-27T20:29:48.952Z,99777.08
2018-07-27T20:32:46.739Z,99776.66
2018-07-27T20:35:44.910Z,99773.11
2018-07-27T20:38:42.356Z,99770.02
2018-07-27T20:41:40.053Z,99762.61
2018-07-27T20:44:37.751Z,99752.48
2018-07-27T20:47:35.496Z,99755.11
2018-07-27T20:50:33.067Z,99758.83
2018-07-27T20:53:30.847Z,99753.62
2018-07-27T20:56:28.892Z,99758.39
2018-07-27T20:59:26.015Z,99756.95
2018-07-27T21:02:23.943Z,99756.38
2018-07-27T21:05:21.955Z,99752.73
2018-07-27T21:08:19.238Z,99742.87
2018-07-27T21:11:17.473Z,99751.70
2018-07-27T21:14:14.552Z,99749.44
2018-07-27T21:17:12.561Z,99751.91
2018-07-27T21:20:09.794Z,99748.86
2018-07-27T21:23:07.844Z,99750.98
2018-07-27T21:26:05.903Z,99748.28
2018-07-27T21:29:03.049Z,99756.97
2018-07-27T21:32:00.995Z,99750.23
2018-07-27T21:34:58.250Z,99747.10
2018-07-27T21:37:56.330Z,99746.44
2018-07-27T21:40:54.318Z,99741.53
2018-07-27T21:43:51.571Z,99748.11
2018-07-27T21:46:49.730Z,99746.49
2018-07-27T21:49:47.087Z,99746.45
2018-07-27T21:52:44.344Z,99742.03
2018-07-27T21:55:42.437Z,99750.78
2018-07-27T21:58:40.583Z,99750.84
2018-07-27T22:01:37.749Z,99753.81
2018-07-27T22:04:35.948Z,99754.22
2018-07-27T22:07:33.352Z,99751.04
2018-07-27T22:10:32.179Z,99759.94
2018-07-27T22:13:30.320Z,99752.92
2018-07-27T22:16:28.165Z,99752.52
2018-07-27T22:19:26.191Z,99740.50
2018-07-27T22:22:24.208Z,99743.14
2018-07-27T22:25:22.372Z,99733.23
2018-07-27T22:28:20.256Z,99734.86
2018-07-27T22:31:18.297Z,99739.86
2018-07-27T22:34:16.456Z,99737.83
2018-07-27T22:37:13.484Z,99727.20
2018-07-27T22:40:11.574Z,99732.59
2018-07-27T22:43:09.447Z,99729.94
2018-07-27T22:46:07.484Z,99737.06
2018-07-27T22:49:05.671Z,99731.73
2018-07-27T22:52:03.539Z,99733.77
2018-07-27T22:55:00.802Z,99732.63
2018-07-27T22:57:58.851Z,99736.52
2018-07-27T23:00:56.181Z,99736.41
2018-07-27T23:03:53.169Z,99732.80
2018-07-27T23:06:50.362Z,99737.06
2018-07-27T23:09:48.355Z,99728.11
2018-07-27T23:12:46.080Z,99729.71
2018-07-27T23:15:43.973Z,99727.89
2018-07-27T23:18:41.409Z,99719.53
2018-07-27T23:21:38.919Z,99718.38
2018-07-27T23:24:36.989Z,99713.36
2018-07-27T23:27:34.911Z,99715.58
2018-07-27T23:30:32.793Z,99709.94
2018-07-27T23:33:29.843Z,99707.61
2018-07-27T23:36:27.752Z,99707.67
2018-07-27T23:39:25.643Z,99702.48
2018-07-27T23:42:23.402Z,99692.53
2018-07-27T23:45:22.187Z,99689.73
2018-07-27T23:48:20.032Z,99679.33
2018-07-27T23:51:18.000Z,99676.36
2018-07-27T23:54:15.868Z,99673.89
2018-07-27T23:57:13.962Z,99678.52
